KMWC/MWC METAR and TAF weather

Enter ICAO airport designator
Station Type Date Time Source
KMWC METAR 2019/08/24 08:55 UTC NOAA

KMWC 240855Z AUTO 00000KT 10SM CLR 12/09 A3029 RMK AO2


Station Type Date Time Source
KMWC Decoded METAR 2019/08/24 08:55 UTC NOAA

Station name not available
Aug 24, 2019 - 04:55 AM EDT / 2019.08.24 0855 UTC
Wind: Calm:0
Visibility: 10 mile(s):0
Sky conditions: clear
Temperature: 53 F (12 C)
Dew Point: 48 F (9 C)
Relative Humidity: 81%
Pressure (altimeter): 30.29 in. Hg (1025 hPa)
ob: KMWC 240855Z AUTO 00000KT 10SM CLR 12/09 A3029 RMK AO2
cycle: 9

Station Type Date Time Source
KMWC TAF UTC NOAA

Error!

Example: see airport list